createdAt,value
2023-04-03T00:00:58.843Z,70.92
2023-04-03T00:03:48.256Z,70.84
2023-04-03T00:06:42.914Z,70.52
2023-04-03T00:09:36.751Z,70.60
2023-04-03T00:12:26.272Z,70.64
2023-04-03T00:15:15.674Z,70.89
2023-04-03T00:18:05.522Z,70.95
2023-04-03T00:20:54.764Z,71.05
2023-04-03T00:23:44.039Z,71.18
2023-04-03T00:26:34.916Z,71.43
2023-04-03T00:29:24.156Z,71.25
2023-04-03T00:32:13.278Z,71.30
2023-04-03T00:35:02.983Z,71.07
2023-04-03T00:37:55.549Z,71.33
2023-04-03T00:40:47.620Z,71.30
2023-04-03T00:43:38.515Z,71.32
2023-04-03T00:46:27.701Z,71.57
2023-04-03T00:49:17.114Z,72.21
2023-04-03T00:52:07.705Z,72.24
2023-04-03T00:55:04.205Z,72.38
2023-04-03T00:57:55.630Z,72.28
2023-04-03T01:00:57.261Z,72.64
2023-04-03T01:03:46.844Z,72.43
2023-04-03T01:06:39.784Z,72.51
2023-04-03T01:09:31.853Z,72.50
2023-04-03T01:12:24.360Z,72.54
2023-04-03T01:15:16.884Z,72.85
2023-04-03T01:18:07.600Z,72.75
2023-04-03T01:21:44.312Z,72.69
2023-04-03T01:24:40.178Z,72.39
2023-04-03T01:27:31.886Z,72.42
2023-04-03T01:30:23.858Z,72.41
2023-04-03T01:33:14.411Z,72.23
2023-04-03T01:36:04.524Z,72.51
2023-04-03T01:38:55.849Z,72.84
2023-04-03T01:41:46.703Z,72.34
2023-04-03T01:44:45.874Z,72.52
2023-04-03T01:47:35.493Z,72.58
2023-04-03T01:50:26.161Z,72.44
2023-04-03T01:53:16.352Z,72.30
2023-04-03T01:56:06.455Z,72.33
2023-04-03T01:58:56.152Z,72.70
2023-04-03T02:01:46.243Z,72.32
2023-04-03T02:04:35.945Z,72.35
2023-04-03T02:07:26.642Z,72.29
2023-04-03T02:10:16.194Z,72.26
2023-04-03T02:13:05.436Z,72.55
2023-04-03T02:15:54.600Z,72.57
2023-04-03T02:18:43.767Z,72.54
2023-04-03T02:21:33.160Z,72.67
2023-04-03T02:24:24.088Z,72.61
2023-04-03T02:27:13.446Z,72.82
2023-04-03T02:30:02.656Z,72.50
2023-04-03T02:32:52.244Z,72.81
2023-04-03T02:35:42.141Z,72.85
2023-04-03T02:38:31.418Z,72.90
2023-04-03T02:41:22.146Z,72.68
2023-04-03T02:44:14.292Z,73.10
2023-04-03T02:47:03.938Z,72.99
2023-04-03T02:49:53.864Z,73.21
2023-04-03T02:52:43.092Z,73.64
2023-04-03T02:55:32.359Z,73.52
2023-04-03T02:58:23.130Z,73.66
2023-04-03T03:01:14.963Z,74.16
2023-04-03T03:04:04.605Z,73.99
2023-04-03T03:06:53.903Z,73.80
2023-04-03T03:09:43.182Z,73.94
2023-04-03T03:12:33.778Z,74.27
2023-04-03T03:15:24.421Z,74.03
2023-04-03T03:18:13.674Z,75.20
2023-04-03T03:21:04.981Z,74.30
2023-04-03T03:23:54.650Z,74.91
2023-04-03T03:26:45.092Z,75.07
2023-04-03T03:29:35.152Z,75.29
2023-04-03T03:32:27.560Z,76.32
2023-04-03T03:35:16.889Z,75.55
2023-04-03T03:38:06.255Z,75.99
2023-04-03T03:40:55.715Z,76.47
2023-04-03T03:43:46.299Z,76.06
2023-04-03T03:46:37.275Z,76.09
2023-04-03T03:49:28.537Z,76.00
2023-04-03T03:52:17.840Z,76.34
2023-04-03T03:55:08.390Z,76.23
2023-04-03T03:57:59.416Z,76.31
2023-04-03T04:00:51.225Z,77.17
2023-04-03T04:03:40.878Z,76.78
2023-04-03T04:06:33.658Z,77.03
2023-04-03T04:09:26.859Z,76.78
2023-04-03T04:12:17.013Z,77.53
2023-04-03T04:15:07.621Z,77.60
2023-04-03T04:17:58.140Z,77.22
2023-04-03T04:20:48.264Z,77.07
2023-04-03T04:23:40.842Z,77.09
2023-04-03T04:26:30.932Z,76.94
2023-04-03T04:29:20.310Z,76.21
2023-04-03T04:32:11.968Z,76.58
2023-04-03T04:35:01.548Z,76.32
2023-04-03T04:37:53.490Z,76.09
2023-04-03T04:40:44.967Z,76.18
2023-04-03T04:43:34.770Z,75.62
2023-04-03T04:46:25.036Z,75.33
2023-04-03T04:49:18.899Z,74.92
2023-04-03T04:52:08.518Z,74.95
2023-04-03T04:54:58.122Z,75.00
2023-04-03T04:57:49.083Z,74.87
2023-04-03T05:00:39.122Z,74.69
2023-04-03T05:03:28.909Z,74.38
2023-04-03T05:06:18.177Z,74.67
2023-04-03T05:09:07.739Z,74.22
2023-04-03T05:11:57.673Z,74.53
2023-04-03T05:14:51.353Z,73.84
2023-04-03T05:17:41.412Z,73.92
2023-04-03T05:20:34.951Z,73.85
2023-04-03T05:23:24.569Z,73.62
2023-04-03T05:26:17.372Z,73.06
2023-04-03T05:29:12.555Z,72.63
2023-04-03T05:32:03.633Z,72.40
2023-04-03T05:34:53.228Z,72.70
2023-04-03T05:37:48.269Z,71.95
2023-04-03T05:40:39.422Z,72.09
2023-04-03T05:43:29.841Z,72.30
2023-04-03T05:46:21.903Z,72.38
2023-04-03T05:49:17.034Z,72.07
2023-04-03T05:52:06.942Z,72.40
2023-04-03T05:54:56.597Z,72.57
2023-04-03T05:57:49.152Z,72.76
2023-04-03T06:00:38.559Z,73.19
2023-04-03T06:03:29.932Z,72.98
2023-04-03T06:06:21.039Z,73.31
2023-04-03T06:09:13.219Z,73.55
2023-04-03T06:12:02.950Z,73.58
2023-04-03T06:14:53.386Z,74.01
2023-04-03T06:17:44.298Z,74.15
2023-04-03T06:20:33.706Z,74.11
2023-04-03T06:23:24.655Z,74.13
2023-04-03T06:26:13.812Z,74.31
2023-04-03T06:29:03.336Z,74.39
2023-04-03T06:31:53.093Z,74.69
2023-04-03T06:34:42.705Z,74.72
2023-04-03T06:37:32.364Z,74.63
2023-04-03T06:40:26.606Z,74.89
2023-04-03T06:43:15.850Z,74.33
2023-04-03T06:46:06.224Z,74.19
2023-04-03T06:48:56.478Z,73.82
2023-04-03T06:51:45.773Z,73.57
2023-04-03T06:54:35.782Z,72.95
2023-04-03T06:57:26.717Z,73.12
2023-04-03T07:00:17.515Z,72.73
2023-04-03T07:03:06.752Z,72.30
2023-04-03T07:05:56.465Z,72.07
2023-04-03T07:08:46.626Z,72.72
2023-04-03T07:11:35.765Z,72.35
2023-04-03T07:14:26.592Z,69.83
2023-04-03T07:17:16.050Z,69.43
2023-04-03T07:20:06.577Z,68.81
2023-04-03T07:22:55.752Z,67.12
2023-04-03T07:25:46.847Z,65.57
2023-04-03T07:28:36.074Z,64.30
2023-04-03T07:31:27.306Z,65.04
2023-04-03T07:34:16.574Z,62.76
2023-04-03T07:37:05.951Z,60.28
2023-04-03T07:39:56.172Z,59.53
2023-04-03T07:42:45.696Z,58.40
2023-04-03T07:45:38.164Z,57.62
2023-04-03T07:48:29.536Z,58.76
2023-04-03T07:51:19.118Z,58.27
2023-04-03T07:54:08.538Z,58.41
2023-04-03T07:56:58.116Z,58.12
2023-04-03T07:59:47.656Z,58.28
2023-04-03T08:02:36.836Z,58.23
2023-04-03T08:05:27.557Z,58.78
2023-04-03T08:08:21.286Z,59.45
2023-04-03T08:11:12.672Z,59.60
2023-04-03T08:14:02.784Z,58.83
2023-04-03T08:16:52.398Z,59.42
2023-04-03T08:19:41.955Z,58.17
2023-04-03T08:22:32.771Z,57.73
2023-04-03T08:25:22.170Z,56.89
2023-04-03T08:28:12.005Z,56.62
2023-04-03T08:31:07.113Z,57.23
2023-04-03T08:33:56.317Z,57.47
2023-04-03T08:36:46.308Z,58.21
2023-04-03T08:39:37.517Z,59.08
2023-04-03T08:42:44.150Z,59.49
2023-04-03T08:45:48.141Z,60.23
2023-04-03T08:48:41.551Z,60.44
2023-04-03T08:51:33.072Z,61.22
2023-04-03T08:54:34.022Z,61.70
2023-04-03T08:57:33.671Z,61.81
2023-04-03T09:00:27.810Z,61.96
2023-04-03T09:03:19.215Z,62.20
2023-04-03T09:06:16.191Z,62.08
2023-04-03T09:09:16.548Z,62.27
2023-04-03T09:12:16.046Z,61.97
2023-04-03T09:15:27.811Z,61.38
2023-04-03T09:18:27.902Z,61.37
2023-04-03T09:21:23.491Z,61.41
2023-04-03T09:24:17.191Z,61.61
2023-04-03T09:27:09.663Z,61.37
2023-04-03T09:29:59.784Z,62.03
2023-04-03T09:32:53.760Z,61.91
2023-04-03T09:35:48.280Z,61.51
2023-04-03T09:38:38.200Z,61.82
2023-04-03T09:41:27.507Z,61.16
2023-04-03T09:44:28.470Z,61.14
2023-04-03T09:47:27.010Z,61.73
2023-04-03T09:50:24.359Z,62.05
2023-04-03T09:53:32.399Z,61.84
2023-04-03T09:56:26.910Z,62.06
2023-04-03T09:59:18.516Z,62.40
2023-04-03T10:02:37.108Z,62.29
2023-04-03T10:05:37.271Z,62.12
2023-04-03T10:08:32.558Z,61.77
2023-04-03T10:11:22.990Z,61.40
2023-04-03T10:14:19.611Z,61.43
2023-04-03T10:17:21.588Z,61.39
2023-04-03T10:20:33.625Z,61.62
2023-04-03T10:23:30.168Z,61.85
2023-04-03T10:26:30.920Z,61.94
2023-04-03T10:29:40.241Z,62.31
2023-04-03T10:32:54.707Z,61.98
2023-04-03T10:35:53.494Z,62.11
2023-04-03T10:38:53.357Z,62.47
2023-04-03T10:42:08.934Z,62.11
2023-04-03T10:45:22.996Z,62.39
2023-04-03T10:48:18.614Z,62.08
2023-04-03T10:51:28.746Z,61.93
2023-04-03T10:54:24.233Z,61.28
2023-04-03T10:57:14.542Z,61.35
2023-04-03T11:00:10.098Z,60.38
2023-04-03T11:03:05.151Z,60.28
2023-04-03T11:05:57.241Z,60.32
2023-04-03T11:08:56.182Z,59.39
2023-04-03T11:11:48.938Z,60.04
2023-04-03T11:14:40.273Z,60.60
2023-04-03T11:17:37.486Z,60.52
2023-04-03T11:20:34.449Z,61.31
2023-04-03T11:23:32.803Z,61.13
2023-04-03T11:26:34.959Z,61.60
2023-04-03T11:33:25.976Z,62.53
2023-04-03T11:36:29.510Z,63.26
2023-04-03T11:39:26.744Z,63.46
2023-04-03T11:42:26.465Z,63.45
2023-04-03T11:45:38.107Z,63.17
2023-04-03T11:48:54.315Z,62.79
2023-04-03T11:51:45.069Z,62.87
2023-04-03T11:54:51.388Z,62.65
2023-04-03T11:58:16.814Z,62.56
2023-04-03T12:01:09.837Z,62.92
2023-04-03T12:04:15.919Z,62.23
2023-04-03T12:07:20.880Z,61.58
2023-04-03T12:10:31.521Z,60.46
2023-04-03T12:13:23.092Z,58.85
2023-04-03T12:16:24.169Z,57.13
2023-04-03T12:22:29.530Z,56.01
2023-04-03T12:25:51.415Z,55.53
2023-04-03T12:28:43.349Z,55.10
2023-04-03T12:31:49.011Z,55.21
2023-04-03T12:34:57.349Z,54.75
2023-04-03T12:38:35.302Z,54.93
2023-04-03T12:41:39.860Z,54.99
2023-04-03T12:44:48.755Z,55.75
2023-04-03T12:47:41.045Z,55.69
2023-04-03T12:50:33.998Z,55.97
2023-04-03T12:53:27.304Z,56.29
2023-04-03T12:56:26.471Z,57.02
2023-04-03T12:59:19.444Z,56.97
2023-04-03T13:02:25.544Z,57.10
2023-04-03T13:05:20.279Z,57.55
2023-04-03T13:08:16.937Z,57.56
2023-04-03T13:11:11.514Z,56.76
2023-04-03T13:14:03.124Z,56.93
2023-04-03T13:16:58.201Z,56.63
2023-04-03T13:19:49.856Z,56.66
2023-04-03T13:22:44.736Z,56.89
2023-04-03T13:25:38.256Z,56.79
2023-04-03T13:28:27.635Z,57.15
2023-04-03T13:31:25.862Z,57.09
2023-04-03T13:34:19.321Z,56.51
2023-04-03T13:37:23.730Z,56.52
2023-04-03T13:40:15.132Z,56.10
2023-04-03T13:43:09.222Z,55.51
2023-04-03T13:46:28.363Z,54.55
2023-04-03T13:49:23.686Z,54.91
2023-04-03T13:52:32.059Z,53.78
2023-04-03T13:55:26.960Z,52.54
2023-04-03T13:58:26.085Z,51.72
2023-04-03T14:01:22.436Z,51.21
2023-04-03T14:04:20.799Z,49.53
2023-04-03T14:07:10.137Z,49.89
2023-04-03T14:10:00.788Z,49.98
2023-04-03T14:12:51.781Z,47.25
2023-04-03T14:15:41.255Z,46.60
2023-04-03T14:18:30.430Z,46.00
2023-04-03T14:21:22.283Z,45.68
2023-04-03T14:24:13.234Z,45.71
2023-04-03T14:27:04.376Z,44.86
2023-04-03T14:29:56.019Z,44.66
2023-04-03T14:32:45.697Z,41.29
2023-04-03T14:35:34.939Z,42.00
2023-04-03T14:38:28.290Z,40.54
2023-04-03T14:41:21.540Z,40.08
2023-04-03T14:44:12.145Z,39.65
2023-04-03T14:47:02.515Z,39.57
2023-04-03T14:49:51.830Z,39.81
2023-04-03T14:52:42.176Z,39.71
2023-04-03T14:55:31.833Z,39.47
2023-04-03T14:58:23.097Z,39.78
2023-04-03T15:01:15.303Z,38.33
2023-04-03T15:04:07.575Z,38.75
2023-04-03T15:06:56.929Z,38.99
2023-04-03T15:09:46.491Z,39.49
2023-04-03T15:12:35.759Z,40.11
2023-04-03T15:15:26.313Z,40.89
2023-04-03T15:18:24.651Z,40.26
2023-04-03T15:21:14.045Z,40.65
2023-04-03T15:24:03.523Z,40.59
2023-04-03T15:26:52.834Z,40.60
2023-04-03T15:29:43.991Z,41.37
2023-04-03T15:32:34.758Z,41.47
2023-04-03T15:35:25.686Z,40.77
2023-04-03T15:38:14.862Z,40.85
2023-04-03T15:41:04.432Z,41.31
2023-04-03T15:43:53.939Z,41.60
2023-04-03T15:46:43.346Z,42.38
2023-04-03T15:49:35.034Z,42.95
2023-04-03T15:52:25.666Z,43.37
2023-04-03T15:55:14.940Z,44.71
2023-04-03T15:58:04.260Z,45.17
2023-04-03T16:00:53.790Z,45.10
2023-04-03T16:03:46.363Z,45.34
2023-04-03T16:06:36.055Z,45.45
2023-04-03T16:09:26.827Z,45.47
2023-04-03T16:12:16.474Z,45.63
2023-04-03T16:15:08.026Z,45.48
2023-04-03T16:17:57.570Z,45.45
2023-04-03T16:20:46.825Z,45.38
2023-04-03T16:23:36.169Z,45.72
2023-04-03T16:26:27.484Z,45.46
2023-04-03T16:29:17.059Z,45.23
2023-04-03T16:32:06.901Z,45.55
2023-04-03T16:34:56.178Z,45.56
2023-04-03T16:37:45.576Z,45.80
2023-04-03T16:40:35.739Z,46.09
2023-04-03T16:43:26.356Z,46.20
2023-04-03T16:46:15.732Z,46.73
2023-04-03T16:49:05.119Z,46.67
2023-04-03T16:51:54.445Z,47.19
2023-04-03T16:54:43.731Z,47.19
2023-04-03T16:57:33.081Z,47.63
2023-04-03T17:00:24.243Z,47.96
2023-04-03T17:03:13.504Z,47.94
2023-04-03T17:06:02.886Z,48.25
2023-04-03T17:08:53.877Z,48.64
2023-04-03T17:11:49.441Z,48.79
2023-04-03T17:14:38.858Z,49.51
2023-04-03T17:17:29.588Z,49.89
2023-04-03T17:20:19.024Z,50.30
2023-04-03T17:23:08.563Z,50.54
2023-04-03T17:25:57.940Z,50.84
2023-04-03T17:28:47.230Z,50.73
2023-04-03T17:31:37.213Z,51.45
2023-04-03T17:34:27.882Z,51.98
2023-04-03T17:37:17.194Z,51.83
2023-04-03T17:40:08.141Z,52.00
2023-04-03T17:42:57.316Z,51.97
2023-04-03T17:45:46.622Z,51.72
2023-04-03T17:48:37.790Z,52.61
2023-04-03T17:51:29.097Z,52.55
2023-04-03T17:54:18.648Z,52.71
2023-04-03T17:57:08.963Z,52.56
2023-04-03T17:59:58.307Z,52.87
2023-04-03T18:02:47.791Z,53.45
2023-04-03T18:05:39.865Z,53.29
2023-04-03T18:08:31.170Z,53.47
2023-04-03T18:11:22.187Z,53.65
2023-04-03T18:14:12.334Z,53.71
2023-04-03T18:17:01.881Z,53.81
2023-04-03T18:19:51.722Z,54.37
2023-04-03T18:22:40.975Z,54.52
2023-04-03T18:28:22.896Z,54.93
2023-04-03T18:31:16.180Z,54.99
2023-04-03T18:34:05.538Z,55.50
2023-04-03T18:36:54.712Z,55.46
2023-04-03T18:39:44.496Z,55.85
2023-04-03T18:42:35.258Z,55.52
2023-04-03T18:45:25.458Z,55.99
2023-04-03T18:48:14.702Z,55.84
2023-04-03T18:51:04.118Z,55.68
2023-04-03T18:53:53.522Z,56.15
2023-04-03T18:56:42.714Z,56.18
2023-04-03T18:59:33.531Z,56.05
2023-04-03T19:02:25.933Z,56.19
2023-04-03T19:05:17.722Z,55.63
2023-04-03T19:08:07.206Z,56.01
2023-04-03T19:10:56.466Z,55.73
2023-04-03T19:14:04.438Z,55.96
2023-04-03T19:16:58.044Z,56.17
2023-04-03T19:19:47.383Z,57.65
2023-04-03T19:22:36.737Z,57.93
2023-04-03T19:25:26.023Z,57.84
2023-04-03T19:28:15.702Z,58.90
2023-04-03T19:31:05.069Z,59.11
2023-04-03T19:33:56.125Z,59.27
2023-04-03T19:36:45.880Z,59.43
2023-04-03T19:39:35.632Z,59.22
2023-04-03T19:42:24.894Z,59.57
2023-04-03T19:45:18.140Z,59.75
2023-04-03T19:48:08.166Z,59.40
2023-04-03T19:50:59.264Z,59.32
2023-04-03T19:53:49.643Z,59.49
2023-04-03T19:56:38.908Z,59.86
2023-04-03T19:59:28.343Z,60.03
2023-04-03T20:02:18.899Z,60.12
2023-04-03T20:05:09.520Z,60.01
2023-04-03T20:08:00.176Z,60.34
2023-04-03T20:10:49.564Z,60.33
2023-04-03T20:13:38.901Z,60.57
2023-04-03T20:16:28.234Z,60.21
2023-04-03T20:19:17.796Z,60.26
2023-04-03T20:22:07.299Z,60.23
2023-04-03T20:25:05.181Z,60.64
2023-04-03T20:27:55.427Z,60.43
2023-04-03T20:30:49.997Z,60.36
2023-04-03T20:33:39.210Z,60.27
2023-04-03T20:36:29.655Z,60.68
2023-04-03T20:39:20.874Z,60.58
2023-04-03T20:42:11.541Z,60.66
2023-04-03T20:45:00.759Z,60.71
2023-04-03T20:47:51.578Z,60.60
2023-04-03T20:50:41.464Z,60.66
2023-04-03T20:53:30.843Z,60.56
2023-04-03T20:56:20.113Z,60.82
2023-04-03T20:59:11.807Z,61.17
2023-04-03T21:02:01.013Z,60.85
2023-04-03T21:04:54.806Z,61.12
2023-04-03T21:08:40.345Z,61.32
2023-04-03T21:12:25.506Z,61.17
2023-04-03T21:15:48.973Z,61.20
2023-04-03T21:19:03.583Z,61.20
2023-04-03T21:21:53.589Z,61.43
2023-04-03T21:24:43.138Z,61.66
2023-04-03T21:27:32.343Z,61.74
2023-04-03T21:30:21.626Z,61.77
2023-04-03T21:33:12.948Z,61.96
2023-04-03T21:36:03.954Z,62.19
2023-04-03T21:38:58.081Z,62.06
2023-04-03T21:41:47.241Z,62.02
2023-04-03T21:44:36.393Z,62.00
2023-04-03T21:47:25.666Z,62.18
2023-04-03T21:50:15.659Z,62.06
2023-04-03T21:53:06.196Z,62.10
2023-04-03T21:55:55.854Z,62.24
2023-04-03T21:58:45.647Z,62.34
2023-04-03T22:01:35.185Z,62.50
2023-04-03T22:04:26.813Z,62.61
2023-04-03T22:07:16.394Z,62.85
2023-04-03T22:10:08.597Z,62.70
2023-04-03T22:12:58.081Z,62.81
2023-04-03T22:15:48.915Z,62.83
2023-04-03T22:18:38.739Z,63.13
2023-04-03T22:21:28.171Z,63.18
2023-04-03T22:24:19.467Z,63.46
2023-04-03T22:27:10.521Z,63.36
2023-04-03T22:30:00.052Z,63.44
2023-04-03T22:32:50.005Z,63.55
2023-04-03T22:35:48.086Z,63.92
2023-04-03T22:38:39.001Z,64.05
2023-04-03T22:41:28.721Z,64.02
2023-04-03T22:44:19.640Z,63.96
2023-04-03T22:47:09.135Z,64.17
2023-04-03T22:49:58.672Z,64.11
2023-04-03T22:52:48.939Z,64.17
2023-04-03T22:55:38.994Z,64.42
2023-04-03T22:58:29.143Z,64.48
2023-04-03T23:01:20.680Z,64.34
2023-04-03T23:04:10.210Z,64.54
2023-04-03T23:07:00.201Z,64.36
2023-04-03T23:09:49.816Z,64.34
2023-04-03T23:12:39.672Z,64.40
2023-04-03T23:15:29.552Z,64.24
2023-04-03T23:18:20.644Z,63.85
2023-04-03T23:21:10.771Z,64.09
2023-04-03T23:24:00.566Z,63.97
2023-04-03T23:26:50.112Z,63.78
2023-04-03T23:29:42.241Z,63.32
2023-04-03T23:32:32.011Z,62.68
2023-04-03T23:35:23.655Z,62.43
2023-04-03T23:38:13.209Z,61.77
2023-04-03T23:41:02.517Z,62.11
2023-04-03T23:43:52.039Z,62.04
2023-04-03T23:46:42.002Z,61.52
2023-04-03T23:49:32.288Z,61.97
2023-04-03T23:52:22.831Z,61.08
2023-04-03T23:55:11.960Z,60.86
2023-04-03T23:58:01.839Z,61.53
